sensor_id;sensor_type;location;lat;lon;timestamp;P1;durP1;ratioP1;P2;durP2;ratioP2
41925;SDS011;27615;51.826;5.692;2022-10-23T00:01:17;15.27;;;10.82;;
41925;SDS011;27615;51.826;5.692;2022-10-23T00:03:50;14.18;;;10.30;;
41925;SDS011;27615;51.826;5.692;2022-10-23T00:06:17;16.65;;;10.43;;
41925;SDS011;27615;51.826;5.692;2022-10-23T00:08:44;13.85;;;10.05;;
41925;SDS011;27615;51.826;5.692;2022-10-23T00:11:11;14.85;;;10.63;;
41925;SDS011;27615;51.826;5.692;2022-10-23T00:13:38;13.23;;;10.13;;
41925;SDS011;27615;51.826;5.692;2022-10-23T00:16:04;16.58;;;10.40;;
41925;SDS011;27615;51.826;5.692;2022-10-23T00:18:30;16.50;;;10.15;;
41925;SDS011;27615;51.826;5.692;2022-10-23T00:20:55;15.23;;;10.25;;
41925;SDS011;27615;51.826;5.692;2022-10-23T00:23:21;13.55;;;10.13;;
41925;SDS011;27615;51.826;5.692;2022-10-23T00:25:47;19.00;;;10.43;;
41925;SDS011;27615;51.826;5.692;2022-10-23T00:28:13;13.68;;;9.77;;
41925;SDS011;27615;51.826;5.692;2022-10-23T00:30:38;14.32;;;9.68;;
41925;SDS011;27615;51.826;5.692;2022-10-23T00:33:04;12.77;;;8.57;;
41925;SDS011;27615;51.826;5.692;2022-10-23T00:35:29;13.73;;;8.23;;
41925;SDS011;27615;51.826;5.692;2022-10-23T00:37:55;9.57;;;8.20;;
41925;SDS011;27615;51.826;5.692;2022-10-23T00:40:20;14.82;;;8.60;;
41925;SDS011;27615;51.826;5.692;2022-10-23T00:42:46;16.45;;;8.55;;
41925;SDS011;27615;51.826;5.692;2022-10-23T00:45:13;13.30;;;8.55;;
41925;SDS011;27615;51.826;5.692;2022-10-23T00:47:42;11.10;;;8.15;;
41925;SDS011;27615;51.826;5.692;2022-10-23T00:50:08;9.77;;;7.65;;
41925;SDS011;27615;51.826;5.692;2022-10-23T00:52:34;12.70;;;7.15;;
41925;SDS011;27615;51.826;5.692;2022-10-23T00:55:05;13.13;;;8.38;;
41925;SDS011;27615;51.826;5.692;2022-10-23T00:57:31;14.98;;;8.05;;
41925;SDS011;27615;51.826;5.692;2022-10-23T00:59:56;14.68;;;7.97;;
41925;SDS011;27615;51.826;5.692;2022-10-23T01:02:22;9.00;;;7.07;;
41925;SDS011;27615;51.826;5.692;2022-10-23T01:04:47;11.15;;;7.60;;
41925;SDS011;27615;51.826;5.692;2022-10-23T01:07:21;12.27;;;6.68;;
41925;SDS011;27615;51.826;5.692;2022-10-23T01:12:33;9.00;;;6.30;;
41925;SDS011;27615;51.826;5.692;2022-10-23T01:15:15;10.88;;;6.35;;
41925;SDS011;27615;51.826;5.692;2022-10-23T01:23:27;12.63;;;6.43;;
41925;SDS011;27615;51.826;5.692;2022-10-23T01:28:51;10.57;;;6.32;;
41925;SDS011;27615;51.826;5.692;2022-10-23T01:31:31;9.90;;;5.75;;
41925;SDS011;27615;51.826;5.692;2022-10-23T01:34:05;10.60;;;6.40;;
41925;SDS011;27615;51.826;5.692;2022-10-23T01:36:36;12.75;;;6.20;;
41925;SDS011;27615;51.826;5.692;2022-10-23T01:39:10;10.55;;;5.95;;
41925;SDS011;27615;51.826;5.692;2022-10-23T01:41:46;7.18;;;5.50;;
41925;SDS011;27615;51.826;5.692;2022-10-23T01:44:23;11.05;;;6.50;;
41925;SDS011;27615;51.826;5.692;2022-10-23T01:46:53;12.70;;;6.32;;
41925;SDS011;27615;51.826;5.692;2022-10-23T01:49:21;14.02;;;6.07;;
41925;SDS011;27615;51.826;5.692;2022-10-23T01:51:49;9.18;;;6.32;;
41925;SDS011;27615;51.826;5.692;2022-10-23T01:54:19;10.25;;;6.70;;
41925;SDS011;27615;51.826;5.692;2022-10-23T01:56:52;11.40;;;6.53;;
41925;SDS011;27615;51.826;5.692;2022-10-23T01:59:21;11.18;;;6.50;;
41925;SDS011;27615;51.826;5.692;2022-10-23T02:01:53;13.82;;;6.40;;
41925;SDS011;27615;51.826;5.692;2022-10-23T02:04:24;12.18;;;6.75;;
41925;SDS011;27615;51.826;5.692;2022-10-23T02:06:54;14.27;;;6.82;;
41925;SDS011;27615;51.826;5.692;2022-10-23T02:09:20;12.38;;;6.78;;
41925;SDS011;27615;51.826;5.692;2022-10-23T02:11:49;11.07;;;6.25;;
41925;SDS011;27615;51.826;5.692;2022-10-23T02:22:48;10.43;;;6.68;;
41925;SDS011;27615;51.826;5.692;2022-10-23T02:25:27;10.30;;;6.20;;
41925;SDS011;27615;51.826;5.692;2022-10-23T02:27:57;15.05;;;6.32;;
41925;SDS011;27615;51.826;5.692;2022-10-23T02:30:26;13.55;;;6.95;;
41925;SDS011;27615;51.826;5.692;2022-10-23T02:32:54;12.05;;;6.30;;
41925;SDS011;27615;51.826;5.692;2022-10-23T02:35:22;12.95;;;6.28;;
41925;SDS011;27615;51.826;5.692;2022-10-23T02:37:54;10.38;;;6.20;;
41925;SDS011;27615;51.826;5.692;2022-10-23T02:40:23;16.45;;;6.80;;
41925;SDS011;27615;51.826;5.692;2022-10-23T02:43:07;10.23;;;7.43;;
41925;SDS011;27615;51.826;5.692;2022-10-23T02:53:42;14.75;;;7.05;;
41925;SDS011;27615;51.826;5.692;2022-10-23T02:56:32;12.43;;;6.28;;
41925;SDS011;27615;51.826;5.692;2022-10-23T02:59:14;10.25;;;6.22;;
41925;SDS011;27615;51.826;5.692;2022-10-23T03:01:49;10.23;;;6.40;;
41925;SDS011;27615;51.826;5.692;2022-10-23T03:04:19;8.05;;;5.82;;
41925;SDS011;27615;51.826;5.692;2022-10-23T03:06:49;12.85;;;7.38;;
41925;SDS011;27615;51.826;5.692;2022-10-23T03:09:15;10.48;;;6.35;;
41925;SDS011;27615;51.826;5.692;2022-10-23T03:11:42;13.65;;;6.38;;
41925;SDS011;27615;51.826;5.692;2022-10-23T03:14:08;9.98;;;6.60;;
41925;SDS011;27615;51.826;5.692;2022-10-23T03:16:35;11.98;;;6.15;;
41925;SDS011;27615;51.826;5.692;2022-10-23T03:19:00;9.82;;;6.70;;
41925;SDS011;27615;51.826;5.692;2022-10-23T03:21:26;9.77;;;6.40;;
41925;SDS011;27615;51.826;5.692;2022-10-23T03:23:51;14.05;;;6.40;;
41925;SDS011;27615;51.826;5.692;2022-10-23T03:26:17;15.93;;;6.95;;
41925;SDS011;27615;51.826;5.692;2022-10-23T03:28:42;13.50;;;7.20;;
41925;SDS011;27615;51.826;5.692;2022-10-23T03:31:08;12.82;;;5.90;;
41925;SDS011;27615;51.826;5.692;2022-10-23T03:33:33;10.00;;;5.88;;
41925;SDS011;27615;51.826;5.692;2022-10-23T03:35:59;7.57;;;5.82;;
41925;SDS011;27615;51.826;5.692;2022-10-23T03:38:24;8.73;;;5.18;;
41925;SDS011;27615;51.826;5.692;2022-10-23T03:40:50;9.10;;;5.93;;
41925;SDS011;27615;51.826;5.692;2022-10-23T03:43:15;9.57;;;5.38;;
41925;SDS011;27615;51.826;5.692;2022-10-23T03:45:41;8.85;;;5.60;;
41925;SDS011;27615;51.826;5.692;2022-10-23T03:48:07;11.20;;;5.30;;
41925;SDS011;27615;51.826;5.692;2022-10-23T03:50:32;7.85;;;3.83;;
41925;SDS011;27615;51.826;5.692;2022-10-23T03:52:59;6.65;;;3.55;;
41925;SDS011;27615;51.826;5.692;2022-10-23T03:55:24;8.82;;;4.25;;
41925;SDS011;27615;51.826;5.692;2022-10-23T03:57:51;8.00;;;4.82;;
41925;SDS011;27615;51.826;5.692;2022-10-23T04:00:17;5.85;;;3.80;;
41925;SDS011;27615;51.826;5.692;2022-10-23T04:02:43;7.75;;;4.20;;
41925;SDS011;27615;51.826;5.692;2022-10-23T04:05:08;6.07;;;3.67;;
41925;SDS011;27615;51.826;5.692;2022-10-23T04:07:34;9.85;;;4.60;;
41925;SDS011;27615;51.826;5.692;2022-10-23T04:10:00;9.10;;;4.43;;
41925;SDS011;27615;51.826;5.692;2022-10-23T04:12:26;6.22;;;4.20;;
41925;SDS011;27615;51.826;5.692;2022-10-23T04:14:51;7.43;;;4.13;;
41925;SDS011;27615;51.826;5.692;2022-10-23T04:17:17;9.05;;;4.72;;
41925;SDS011;27615;51.826;5.692;2022-10-23T04:19:42;7.85;;;4.53;;
41925;SDS011;27615;51.826;5.692;2022-10-23T04:22:08;8.23;;;5.10;;
41925;SDS011;27615;51.826;5.692;2022-10-23T04:24:33;6.45;;;4.03;;
41925;SDS011;27615;51.826;5.692;2022-10-23T04:26:59;8.13;;;3.70;;
41925;SDS011;27615;51.826;5.692;2022-10-23T04:29:24;5.88;;;4.10;;
41925;SDS011;27615;51.826;5.692;2022-10-23T04:31:50;8.85;;;4.57;;
41925;SDS011;27615;51.826;5.692;2022-10-23T04:34:16;5.00;;;3.55;;
41925;SDS011;27615;51.826;5.692;2022-10-23T04:36:42;6.28;;;3.72;;
41925;SDS011;27615;51.826;5.692;2022-10-23T04:39:08;5.57;;;3.63;;
41925;SDS011;27615;51.826;5.692;2022-10-23T04:41:34;10.82;;;3.35;;
41925;SDS011;27615;51.826;5.692;2022-10-23T04:44:02;6.13;;;3.30;;
41925;SDS011;27615;51.826;5.692;2022-10-23T04:46:28;8.13;;;2.95;;
41925;SDS011;27615;51.826;5.692;2022-10-23T04:48:53;4.15;;;2.90;;
41925;SDS011;27615;51.826;5.692;2022-10-23T04:51:19;6.45;;;3.03;;
41925;SDS011;27615;51.826;5.692;2022-10-23T04:53:44;7.32;;;4.82;;
41925;SDS011;27615;51.826;5.692;2022-10-23T04:56:12;7.25;;;3.95;;
41925;SDS011;27615;51.826;5.692;2022-10-23T04:58:39;6.73;;;3.60;;
41925;SDS011;27615;51.826;5.692;2022-10-23T05:01:05;9.73;;;4.00;;
41925;SDS011;27615;51.826;5.692;2022-10-23T05:03:31;6.80;;;3.97;;
41925;SDS011;27615;51.826;5.692;2022-10-23T05:05:57;5.45;;;3.28;;
41925;SDS011;27615;51.826;5.692;2022-10-23T05:08:22;4.82;;;3.20;;
41925;SDS011;27615;51.826;5.692;2022-10-23T05:10:49;7.10;;;3.70;;
41925;SDS011;27615;51.826;5.692;2022-10-23T05:13:16;6.32;;;3.90;;
41925;SDS011;27615;51.826;5.692;2022-10-23T05:15:44;7.85;;;3.80;;
41925;SDS011;27615;51.826;5.692;2022-10-23T05:18:20;10.48;;;4.70;;
41925;SDS011;27615;51.826;5.692;2022-10-23T05:20:51;8.73;;;5.15;;
41925;SDS011;27615;51.826;5.692;2022-10-23T05:23:21;10.55;;;5.43;;
41925;SDS011;27615;51.826;5.692;2022-10-23T05:25:49;13.23;;;5.53;;
41925;SDS011;27615;51.826;5.692;2022-10-23T05:28:14;12.35;;;6.15;;
41925;SDS011;27615;51.826;5.692;2022-10-23T05:30:40;10.38;;;5.68;;
41925;SDS011;27615;51.826;5.692;2022-10-23T05:33:06;10.75;;;5.65;;
41925;SDS011;27615;51.826;5.692;2022-10-23T05:35:32;11.38;;;6.05;;
41925;SDS011;27615;51.826;5.692;2022-10-23T05:37:58;7.68;;;5.22;;
41925;SDS011;27615;51.826;5.692;2022-10-23T05:40:25;11.85;;;5.70;;
41925;SDS011;27615;51.826;5.692;2022-10-23T05:42:51;10.65;;;5.80;;
41925;SDS011;27615;51.826;5.692;2022-10-23T05:45:16;10.52;;;5.50;;
41925;SDS011;27615;51.826;5.692;2022-10-23T05:47:43;9.90;;;5.15;;
41925;SDS011;27615;51.826;5.692;2022-10-23T05:50:09;12.13;;;5.25;;
41925;SDS011;27615;51.826;5.692;2022-10-23T05:52:35;10.80;;;6.13;;
41925;SDS011;27615;51.826;5.692;2022-10-23T05:55:00;10.52;;;5.85;;
41925;SDS011;27615;51.826;5.692;2022-10-23T05:57:26;9.38;;;4.95;;
41925;SDS011;27615;51.826;5.692;2022-10-23T05:59:52;10.95;;;5.45;;
41925;SDS011;27615;51.826;5.692;2022-10-23T06:02:17;9.20;;;5.05;;
41925;SDS011;27615;51.826;5.692;2022-10-23T06:04:58;11.40;;;4.85;;
41925;SDS011;27615;51.826;5.692;2022-10-23T06:07:24;13.05;;;5.43;;
41925;SDS011;27615;51.826;5.692;2022-10-23T06:09:50;9.32;;;5.50;;
41925;SDS011;27615;51.826;5.692;2022-10-23T06:12:17;8.63;;;4.75;;
41925;SDS011;27615;51.826;5.692;2022-10-23T06:14:43;10.80;;;5.13;;
41925;SDS011;27615;51.826;5.692;2022-10-23T06:17:08;6.60;;;5.00;;
41925;SDS011;27615;51.826;5.692;2022-10-23T06:19:34;10.55;;;5.70;;
41925;SDS011;27615;51.826;5.692;2022-10-23T06:21:59;11.30;;;5.45;;
41925;SDS011;27615;51.826;5.692;2022-10-23T06:24:25;6.20;;;4.78;;
41925;SDS011;27615;51.826;5.692;2022-10-23T06:26:50;10.43;;;4.22;;
41925;SDS011;27615;51.826;5.692;2022-10-23T06:29:16;5.95;;;4.38;;
41925;SDS011;27615;51.826;5.692;2022-10-23T06:31:41;6.78;;;4.43;;
41925;SDS011;27615;51.826;5.692;2022-10-23T06:34:08;7.53;;;4.78;;
41925;SDS011;27615;51.826;5.692;2022-10-23T06:36:35;7.00;;;4.60;;
41925;SDS011;27615;51.826;5.692;2022-10-23T06:39:02;9.85;;;5.25;;
41925;SDS011;27615;51.826;5.692;2022-10-23T06:41:28;8.90;;;4.72;;
41925;SDS011;27615;51.826;5.692;2022-10-23T06:43:53;9.60;;;5.05;;
41925;SDS011;27615;51.826;5.692;2022-10-23T06:46:19;9.68;;;4.55;;
41925;SDS011;27615;51.826;5.692;2022-10-23T06:48:45;8.93;;;4.60;;
41925;SDS011;27615;51.826;5.692;2022-10-23T06:51:11;10.90;;;4.63;;
41925;SDS011;27615;51.826;5.692;2022-10-23T06:53:38;9.23;;;4.55;;
41925;SDS011;27615;51.826;5.692;2022-10-23T06:56:05;9.18;;;4.72;;
41925;SDS011;27615;51.826;5.692;2022-10-23T06:58:32;6.45;;;4.18;;
41925;SDS011;27615;51.826;5.692;2022-10-23T07:01:00;8.50;;;4.53;;
41925;SDS011;27615;51.826;5.692;2022-10-23T07:03:27;9.23;;;5.47;;
41925;SDS011;27615;51.826;5.692;2022-10-23T07:05:53;13.50;;;5.18;;
41925;SDS011;27615;51.826;5.692;2022-10-23T07:08:19;8.45;;;4.63;;
41925;SDS011;27615;51.826;5.692;2022-10-23T07:10:45;8.27;;;4.50;;
41925;SDS011;27615;51.826;5.692;2022-10-23T07:13:11;10.68;;;4.93;;
41925;SDS011;27615;51.826;5.692;2022-10-23T07:15:37;7.70;;;4.20;;
41925;SDS011;27615;51.826;5.692;2022-10-23T07:18:05;7.68;;;4.65;;
41925;SDS011;27615;51.826;5.692;2022-10-23T07:20:31;10.02;;;4.75;;
41925;SDS011;27615;51.826;5.692;2022-10-23T07:22:57;8.50;;;4.50;;
41925;SDS011;27615;51.826;5.692;2022-10-23T07:25:23;7.43;;;4.63;;
41925;SDS011;27615;51.826;5.692;2022-10-23T07:27:49;6.80;;;4.13;;
41925;SDS011;27615;51.826;5.692;2022-10-23T07:30:16;6.20;;;3.55;;
41925;SDS011;27615;51.826;5.692;2022-10-23T07:32:42;9.70;;;4.55;;
41925;SDS011;27615;51.826;5.692;2022-10-23T07:35:08;6.55;;;3.92;;
41925;SDS011;27615;51.826;5.692;2022-10-23T07:37:34;7.85;;;3.92;;
41925;SDS011;27615;51.826;5.692;2022-10-23T07:40:00;6.25;;;3.55;;
41925;SDS011;27615;51.826;5.692;2022-10-23T07:42:27;6.78;;;4.40;;
41925;SDS011;27615;51.826;5.692;2022-10-23T07:44:52;8.35;;;4.20;;
41925;SDS011;27615;51.826;5.692;2022-10-23T07:47:18;12.02;;;4.05;;
41925;SDS011;27615;51.826;5.692;2022-10-23T07:49:43;9.15;;;3.65;;
41925;SDS011;27615;51.826;5.692;2022-10-23T07:52:09;9.65;;;4.32;;
41925;SDS011;27615;51.826;5.692;2022-10-23T07:54:35;8.43;;;4.15;;
41925;SDS011;27615;51.826;5.692;2022-10-23T07:57:00;10.20;;;4.00;;
41925;SDS011;27615;51.826;5.692;2022-10-23T07:59:26;9.40;;;3.72;;
41925;SDS011;27615;51.826;5.692;2022-10-23T08:01:51;6.35;;;3.63;;
41925;SDS011;27615;51.826;5.692;2022-10-23T08:04:20;11.40;;;4.07;;
41925;SDS011;27615;51.826;5.692;2022-10-23T08:06:46;7.85;;;3.78;;
41925;SDS011;27615;51.826;5.692;2022-10-23T08:09:12;7.40;;;3.50;;
41925;SDS011;27615;51.826;5.692;2022-10-23T08:11:37;5.63;;;3.08;;
41925;SDS011;27615;51.826;5.692;2022-10-23T08:14:03;7.22;;;3.58;;
41925;SDS011;27615;51.826;5.692;2022-10-23T08:16:33;11.73;;;4.32;;
41925;SDS011;27615;51.826;5.692;2022-10-23T08:19:00;10.60;;;3.60;;
41925;SDS011;27615;51.826;5.692;2022-10-23T08:21:27;7.03;;;3.28;;
41925;SDS011;27615;51.826;5.692;2022-10-23T08:23:56;9.70;;;3.65;;
41925;SDS011;27615;51.826;5.692;2022-10-23T08:26:24;7.00;;;3.25;;
41925;SDS011;27615;51.826;5.692;2022-10-23T08:28:50;8.43;;;3.38;;
41925;SDS011;27615;51.826;5.692;2022-10-23T08:31:22;8.55;;;3.38;;
41925;SDS011;27615;51.826;5.692;2022-10-23T08:33:47;5.00;;;3.00;;
41925;SDS011;27615;51.826;5.692;2022-10-23T08:38:46;5.57;;;3.55;;
41925;SDS011;27615;51.826;5.692;2022-10-23T08:41:16;5.75;;;3.25;;
41925;SDS011;27615;51.826;5.692;2022-10-23T08:44:17;7.03;;;2.67;;
41925;SDS011;27615;51.826;5.692;2022-10-23T08:47:09;6.97;;;2.92;;
41925;SDS011;27615;51.826;5.692;2022-10-23T08:49:43;5.70;;;2.75;;
41925;SDS011;27615;51.826;5.692;2022-10-23T08:52:24;4.47;;;2.85;;
41925;SDS011;27615;51.826;5.692;2022-10-23T08:55:14;7.65;;;3.20;;
41925;SDS011;27615;51.826;5.692;2022-10-23T09:00:27;7.47;;;3.10;;
41925;SDS011;27615;51.826;5.692;2022-10-23T09:02:54;5.57;;;2.97;;
41925;SDS011;27615;51.826;5.692;2022-10-23T09:05:30;7.65;;;3.60;;
41925;SDS011;27615;51.826;5.692;2022-10-23T09:08:06;5.78;;;2.85;;
41925;SDS011;27615;51.826;5.692;2022-10-23T09:19:21;5.53;;;3.38;;
41925;SDS011;27615;51.826;5.692;2022-10-23T09:21:51;7.07;;;3.60;;
41925;SDS011;27615;51.826;5.692;2022-10-23T09:24:20;6.07;;;3.33;;
41925;SDS011;27615;51.826;5.692;2022-10-23T09:26:49;5.97;;;3.23;;
41925;SDS011;27615;51.826;5.692;2022-10-23T09:29:32;17.08;;;4.03;;
41925;SDS011;27615;51.826;5.692;2022-10-23T09:32:00;4.90;;;2.90;;
41925;SDS011;27615;51.826;5.692;2022-10-23T09:34:37;6.97;;;3.10;;
41925;SDS011;27615;51.826;5.692;2022-10-23T09:37:20;7.32;;;3.28;;
41925;SDS011;27615;51.826;5.692;2022-10-23T09:45:23;6.78;;;2.33;;
41925;SDS011;27615;51.826;5.692;2022-10-23T09:48:04;3.80;;;2.47;;
41925;SDS011;27615;51.826;5.692;2022-10-23T09:50:32;7.53;;;3.28;;
41925;SDS011;27615;51.826;5.692;2022-10-23T09:52:58;10.27;;;3.42;;
41925;SDS011;27615;51.826;5.692;2022-10-23T09:55:24;6.78;;;2.17;;
41925;SDS011;27615;51.826;5.692;2022-10-23T09:57:51;6.15;;;2.70;;
41925;SDS011;27615;51.826;5.692;2022-10-23T10:00:24;9.38;;;2.53;;
41925;SDS011;27615;51.826;5.692;2022-10-23T10:05:25;4.32;;;2.40;;
41925;SDS011;27615;51.826;5.692;2022-10-23T10:08:02;6.60;;;2.45;;
41925;SDS011;27615;51.826;5.692;2022-10-23T10:10:41;4.55;;;1.92;;
41925;SDS011;27615;51.826;5.692;2022-10-23T10:19:43;6.25;;;2.08;;
41925;SDS011;27615;51.826;5.692;2022-10-23T10:22:33;4.60;;;2.20;;
41925;SDS011;27615;51.826;5.692;2022-10-23T10:27:58;6.57;;;1.90;;
41925;SDS011;27615;51.826;5.692;2022-10-23T10:30:50;4.28;;;2.08;;
41925;SDS011;27615;51.826;5.692;2022-10-23T10:33:21;4.30;;;2.00;;
41925;SDS011;27615;51.826;5.692;2022-10-23T10:36:09;6.60;;;1.60;;
41925;SDS011;27615;51.826;5.692;2022-10-23T10:38:56;2.95;;;1.40;;
41925;SDS011;27615;51.826;5.692;2022-10-23T10:44:09;2.65;;;1.48;;
41925;SDS011;27615;51.826;5.692;2022-10-23T10:46:42;4.97;;;1.83;;
41925;SDS011;27615;51.826;5.692;2022-10-23T10:52:15;4.00;;;1.77;;
41925;SDS011;27615;51.826;5.692;2022-10-23T11:01:02;5.07;;;2.10;;
41925;SDS011;27615;51.826;5.692;2022-10-23T11:03:53;4.55;;;1.92;;
41925;SDS011;27615;51.826;5.692;2022-10-23T11:06:43;3.55;;;1.75;;
41925;SDS011;27615;51.826;5.692;2022-10-23T11:09:18;2.45;;;1.20;;
41925;SDS011;27615;51.826;5.692;2022-10-23T11:11:45;3.53;;;1.52;;
41925;SDS011;27615;51.826;5.692;2022-10-23T11:14:27;9.43;;;1.92;;
41925;SDS011;27615;51.826;5.692;2022-10-23T11:17:08;4.60;;;1.65;;
41925;SDS011;27615;51.826;5.692;2022-10-23T11:19:42;6.70;;;1.58;;
41925;SDS011;27615;51.826;5.692;2022-10-23T11:22:18;6.85;;;2.25;;
41925;SDS011;27615;51.826;5.692;2022-10-23T11:27:25;5.57;;;1.80;;
41925;SDS011;27615;51.826;5.692;2022-10-23T11:36:05;19.20;;;4.95;;
41925;SDS011;27615;51.826;5.692;2022-10-23T11:38:49;9.52;;;2.88;;
41925;SDS011;27615;51.826;5.692;2022-10-23T11:41:22;4.65;;;1.75;;
41925;SDS011;27615;51.826;5.692;2022-10-23T11:43:54;5.40;;;1.83;;
41925;SDS011;27615;51.826;5.692;2022-10-23T11:48:50;3.45;;;1.70;;
41925;SDS011;27615;51.826;5.692;2022-10-23T11:51:26;2.28;;;1.20;;
41925;SDS011;27615;51.826;5.692;2022-10-23T11:56:50;4.07;;;1.77;;
41925;SDS011;27615;51.826;5.692;2022-10-23T12:04:56;6.43;;;1.90;;
41925;SDS011;27615;51.826;5.692;2022-10-23T12:07:33;6.45;;;1.60;;
41925;SDS011;27615;51.826;5.692;2022-10-23T12:10:05;4.40;;;1.50;;
41925;SDS011;27615;51.826;5.692;2022-10-23T12:12:33;5.80;;;1.60;;
41925;SDS011;27615;51.826;5.692;2022-10-23T12:17:44;2.90;;;1.27;;
41925;SDS011;27615;51.826;5.692;2022-10-23T12:25:22;5.28;;;1.67;;
41925;SDS011;27615;51.826;5.692;2022-10-23T12:28:06;4.60;;;2.17;;
41925;SDS011;27615;51.826;5.692;2022-10-23T12:31:07;6.20;;;1.30;;
41925;SDS011;27615;51.826;5.692;2022-10-23T12:34:05;4.07;;;1.55;;
41925;SDS011;27615;51.826;5.692;2022-10-23T12:39:36;2.72;;;1.20;;
41925;SDS011;27615;51.826;5.692;2022-10-23T12:42:04;4.53;;;1.70;;
41925;SDS011;27615;51.826;5.692;2022-10-23T12:44:38;4.75;;;1.80;;
41925;SDS011;27615;51.826;5.692;2022-10-23T12:47:03;3.88;;;1.40;;
41925;SDS011;27615;51.826;5.692;2022-10-23T12:49:30;5.32;;;1.45;;
41925;SDS011;27615;51.826;5.692;2022-10-23T12:51:58;4.75;;;1.48;;
41925;SDS011;27615;51.826;5.692;2022-10-23T12:54:29;3.42;;;1.20;;
41925;SDS011;27615;51.826;5.692;2022-10-23T12:56:59;8.77;;;1.75;;
41925;SDS011;27615;51.826;5.692;2022-10-23T12:59:36;5.60;;;1.45;;
41925;SDS011;27615;51.826;5.692;2022-10-23T13:02:12;5.30;;;1.80;;
41925;SDS011;27615;51.826;5.692;2022-10-23T13:04:47;4.68;;;1.48;;
41925;SDS011;27615;51.826;5.692;2022-10-23T13:07:14;4.32;;;1.80;;
41925;SDS011;27615;51.826;5.692;2022-10-23T13:09:44;5.90;;;1.52;;
41925;SDS011;27615;51.826;5.692;2022-10-23T13:12:14;7.55;;;2.10;;
41925;SDS011;27615;51.826;5.692;2022-10-23T13:14:53;4.75;;;2.00;;
41925;SDS011;27615;51.826;5.692;2022-10-23T13:17:34;4.30;;;2.00;;
41925;SDS011;27615;51.826;5.692;2022-10-23T13:22:42;5.70;;;1.60;;
41925;SDS011;27615;51.826;5.692;2022-10-23T13:25:23;5.45;;;2.13;;
41925;SDS011;27615;51.826;5.692;2022-10-23T13:27:50;3.05;;;1.95;;
41925;SDS011;27615;51.826;5.692;2022-10-23T13:30:34;8.77;;;2.40;;
41925;SDS011;27615;51.826;5.692;2022-10-23T13:33:12;2.80;;;1.33;;
41925;SDS011;27615;51.826;5.692;2022-10-23T13:35:53;4.05;;;2.75;;
41925;SDS011;27615;51.826;5.692;2022-10-23T13:38:29;4.63;;;2.33;;
41925;SDS011;27615;51.826;5.692;2022-10-23T13:40:56;2.60;;;1.83;;
41925;SDS011;27615;51.826;5.692;2022-10-23T13:43:26;2.05;;;1.33;;
41925;SDS011;27615;51.826;5.692;2022-10-23T13:45:54;4.53;;;2.55;;
41925;SDS011;27615;51.826;5.692;2022-10-23T13:48:20;3.75;;;2.13;;
41925;SDS011;27615;51.826;5.692;2022-10-23T13:50:46;4.43;;;1.73;;
41925;SDS011;27615;51.826;5.692;2022-10-23T13:53:11;5.32;;;2.30;;
41925;SDS011;27615;51.826;5.692;2022-10-23T13:55:38;5.70;;;2.65;;
41925;SDS011;27615;51.826;5.692;2022-10-23T13:58:07;5.57;;;2.08;;
41925;SDS011;27615;51.826;5.692;2022-10-23T14:00:33;6.55;;;2.30;;
41925;SDS011;27615;51.826;5.692;2022-10-23T14:03:05;4.45;;;1.88;;
41925;SDS011;27615;51.826;5.692;2022-10-23T14:05:35;3.67;;;2.17;;
41925;SDS011;27615;51.826;5.692;2022-10-23T14:08:01;3.63;;;1.92;;
41925;SDS011;27615;51.826;5.692;2022-10-23T14:10:29;5.97;;;2.35;;
41925;SDS011;27615;51.826;5.692;2022-10-23T14:12:55;3.92;;;2.08;;
41925;SDS011;27615;51.826;5.692;2022-10-23T14:15:21;6.88;;;2.30;;
41925;SDS011;27615;51.826;5.692;2022-10-23T14:17:47;4.82;;;2.60;;
41925;SDS011;27615;51.826;5.692;2022-10-23T14:20:12;4.00;;;2.25;;
41925;SDS011;27615;51.826;5.692;2022-10-23T14:22:38;4.72;;;2.15;;
41925;SDS011;27615;51.826;5.692;2022-10-23T14:25:03;4.65;;;1.92;;
41925;SDS011;27615;51.826;5.692;2022-10-23T14:27:29;5.15;;;2.17;;
41925;SDS011;27615;51.826;5.692;2022-10-23T14:29:55;4.82;;;2.00;;
41925;SDS011;27615;51.826;5.692;2022-10-23T14:32:21;4.32;;;2.58;;
41925;SDS011;27615;51.826;5.692;2022-10-23T14:34:50;4.35;;;1.95;;
41925;SDS011;27615;51.826;5.692;2022-10-23T14:37:19;4.80;;;2.35;;
41925;SDS011;27615;51.826;5.692;2022-10-23T14:39:45;3.53;;;1.80;;
41925;SDS011;27615;51.826;5.692;2022-10-23T14:42:11;5.15;;;2.25;;
41925;SDS011;27615;51.826;5.692;2022-10-23T14:44:42;3.70;;;2.22;;
41925;SDS011;27615;51.826;5.692;2022-10-23T14:47:08;4.10;;;2.08;;
41925;SDS011;27615;51.826;5.692;2022-10-23T14:49:39;4.25;;;2.30;;
41925;SDS011;27615;51.826;5.692;2022-10-23T14:52:15;7.10;;;2.58;;
41925;SDS011;27615;51.826;5.692;2022-10-23T14:54:41;4.40;;;2.10;;
41925;SDS011;27615;51.826;5.692;2022-10-23T14:57:06;8.25;;;2.83;;
41925;SDS011;27615;51.826;5.692;2022-10-23T14:59:32;4.90;;;2.53;;
41925;SDS011;27615;51.826;5.692;2022-10-23T15:01:57;6.57;;;2.47;;
41925;SDS011;27615;51.826;5.692;2022-10-23T15:04:23;4.53;;;2.30;;
41925;SDS011;27615;51.826;5.692;2022-10-23T15:06:49;8.05;;;3.20;;
41925;SDS011;27615;51.826;5.692;2022-10-23T15:09:15;4.68;;;2.08;;
41925;SDS011;27615;51.826;5.692;2022-10-23T15:11:43;3.47;;;2.00;;
41925;SDS011;27615;51.826;5.692;2022-10-23T15:14:11;6.47;;;1.98;;
41925;SDS011;27615;51.826;5.692;2022-10-23T15:16:42;3.28;;;1.98;;
41925;SDS011;27615;51.826;5.692;2022-10-23T15:19:08;5.00;;;2.47;;
41925;SDS011;27615;51.826;5.692;2022-10-23T15:21:34;5.60;;;2.47;;
41925;SDS011;27615;51.826;5.692;2022-10-23T15:24:00;6.10;;;2.28;;
41925;SDS011;27615;51.826;5.692;2022-10-23T15:26:26;5.80;;;2.03;;
41925;SDS011;27615;51.826;5.692;2022-10-23T15:28:52;3.95;;;1.77;;
41925;SDS011;27615;51.826;5.692;2022-10-23T15:33:53;3.38;;;1.92;;
41925;SDS011;27615;51.826;5.692;2022-10-23T15:36:19;4.80;;;2.05;;
41925;SDS011;27615;51.826;5.692;2022-10-23T15:38:45;4.15;;;2.03;;
41925;SDS011;27615;51.826;5.692;2022-10-23T15:41:14;3.03;;;1.58;;
41925;SDS011;27615;51.826;5.692;2022-10-23T15:43:41;2.17;;;1.33;;
41925;SDS011;27615;51.826;5.692;2022-10-23T15:46:07;5.80;;;2.28;;
41925;SDS011;27615;51.826;5.692;2022-10-23T15:48:32;5.00;;;1.80;;
41925;SDS011;27615;51.826;5.692;2022-10-23T15:51:00;3.45;;;1.70;;
41925;SDS011;27615;51.826;5.692;2022-10-23T15:53:28;5.25;;;1.75;;
41925;SDS011;27615;51.826;5.692;2022-10-23T15:56:02;4.30;;;2.08;;
41925;SDS011;27615;51.826;5.692;2022-10-23T15:58:28;7.10;;;2.67;;
41925;SDS011;27615;51.826;5.692;2022-10-23T16:00:53;4.05;;;2.20;;
41925;SDS011;27615;51.826;5.692;2022-10-23T16:03:19;4.13;;;1.95;;
41925;SDS011;27615;51.826;5.692;2022-10-23T16:05:44;4.13;;;2.10;;
41925;SDS011;27615;51.826;5.692;2022-10-23T16:08:10;5.63;;;2.22;;
41925;SDS011;27615;51.826;5.692;2022-10-23T16:10:39;5.00;;;2.25;;
41925;SDS011;27615;51.826;5.692;2022-10-23T16:15:30;4.55;;;2.25;;
41925;SDS011;27615;51.826;5.692;2022-10-23T16:17:59;4.73;;;2.50;;
41925;SDS011;27615;51.826;5.692;2022-10-23T16:20:24;6.13;;;2.35;;
41925;SDS011;27615;51.826;5.692;2022-10-23T16:22:50;4.95;;;2.20;;
41925;SDS011;27615;51.826;5.692;2022-10-23T16:25:15;6.15;;;2.03;;
41925;SDS011;27615;51.826;5.692;2022-10-23T16:27:41;16.50;;;2.47;;
41925;SDS011;27615;51.826;5.692;2022-10-23T16:30:07;3.08;;;2.00;;
41925;SDS011;27615;51.826;5.692;2022-10-23T16:32:33;6.25;;;2.03;;
41925;SDS011;27615;51.826;5.692;2022-10-23T16:35:00;2.50;;;1.80;;
41925;SDS011;27615;51.826;5.692;2022-10-23T16:37:25;4.57;;;2.40;;
41925;SDS011;27615;51.826;5.692;2022-10-23T16:39:51;5.60;;;2.35;;
41925;SDS011;27615;51.826;5.692;2022-10-23T16:42:16;5.93;;;2.80;;
41925;SDS011;27615;51.826;5.692;2022-10-23T16:44:42;6.60;;;2.25;;